sensor_id;sensor_type;location;lat;lon;timestamp;pressure;altitude;pressure_sealevel;temperature;humidity
6615;BME280;3343;42.896;23.912;2023-03-20T00:00:26;74057.88;;;-145.80;58.67
6615;BME280;3343;42.896;23.912;2023-03-20T00:02:54;73979.66;;;-145.80;56.97
6615;BME280;3343;42.896;23.912;2023-03-20T00:05:22;73963.59;;;-145.80;56.21
6615;BME280;3343;42.896;23.912;2023-03-20T00:07:50;73963.59;;;-145.80;55.31
6615;BME280;3343;42.896;23.912;2023-03-20T00:10:19;74005.72;;;-145.80;56.59
6615;BME280;3343;42.896;23.912;2023-03-20T00:12:47;74031.81;;;-145.80;57.37
6615;BME280;3343;42.896;23.912;2023-03-20T00:15:27;74005.72;;;-145.80;56.46
6615;BME280;3343;42.896;23.912;2023-03-20T00:17:55;74049.84;;;-145.80;57.20
6615;BME280;3343;42.896;23.912;2023-03-20T00:20:22;74045.84;;;-145.80;57.01
6615;BME280;3343;42.896;23.912;2023-03-20T00:22:49;74017.75;;;-145.80;56.98
6615;BME280;3343;42.896;23.912;2023-03-20T00:25:19;74007.72;;;-145.80;56.88
6615;BME280;3343;42.896;23.912;2023-03-20T00:27:47;73979.66;;;-145.80;55.97
6615;BME280;3343;42.896;23.912;2023-03-20T00:30:23;73991.69;;;-145.80;56.08
6615;BME280;3343;42.896;23.912;2023-03-20T00:32:54;73991.69;;;-145.80;55.97
6615;BME280;3343;42.896;23.912;2023-03-20T00:35:26;73959.59;;;-145.80;55.60
6615;BME280;3343;42.896;23.912;2023-03-20T00:37:54;74001.72;;;-145.80;56.44
6615;BME280;3343;42.896;23.912;2023-03-20T00:40:26;73989.66;;;-145.80;56.50
6615;BME280;3343;42.896;23.912;2023-03-20T00:42:58;73985.66;;;-145.80;56.17
6615;BME280;3343;42.896;23.912;2023-03-20T00:45:26;73983.66;;;-145.80;55.92
6615;BME280;3343;42.896;23.912;2023-03-20T00:47:54;73979.66;;;-145.80;56.29
6615;BME280;3343;42.896;23.912;2023-03-20T00:50:23;73977.63;;;-145.80;56.55
6615;BME280;3343;42.896;23.912;2023-03-20T00:52:51;73987.66;;;-145.80;56.76
6615;BME280;3343;42.896;23.912;2023-03-20T00:55:19;73967.59;;;-145.80;56.45
6615;BME280;3343;42.896;23.912;2023-03-20T00:57:51;73939.53;;;-145.80;55.59
6615;BME280;3343;42.896;23.912;2023-03-20T01:00:25;73915.44;;;-145.80;55.41
6615;BME280;3343;42.896;23.912;2023-03-20T01:02:57;73927.47;;;-145.80;55.10
6615;BME280;3343;42.896;23.912;2023-03-20T01:05:25;73951.56;;;-145.80;55.27
6615;BME280;3343;42.896;23.912;2023-03-20T01:07:54;73927.47;;;-145.80;54.63
6615;BME280;3343;42.896;23.912;2023-03-20T01:10:31;73935.50;;;-145.80;54.39
6615;BME280;3343;42.896;23.912;2023-03-20T01:13:00;73967.59;;;-145.80;56.20
6615;BME280;3343;42.896;23.912;2023-03-20T01:15:31;74015.75;;;-145.80;57.60
6615;BME280;3343;42.896;23.912;2023-03-20T01:17:58;74047.84;;;-145.80;58.78
6615;BME280;3343;42.896;23.912;2023-03-20T01:20:27;74051.88;;;-145.80;59.12
6615;BME280;3343;42.896;23.912;2023-03-20T01:22:54;74065.91;;;-145.80;60.34
6615;BME280;3343;42.896;23.912;2023-03-20T01:25:21;73979.66;;;-145.80;58.50
6615;BME280;3343;42.896;23.912;2023-03-20T01:27:49;73967.59;;;-145.80;57.39
6615;BME280;3343;42.896;23.912;2023-03-20T01:30:21;73927.47;;;-145.80;56.45
6615;BME280;3343;42.896;23.912;2023-03-20T01:32:48;73927.47;;;-145.80;55.54
6615;BME280;3343;42.896;23.912;2023-03-20T01:35:16;73891.38;;;-145.80;55.13
6615;BME280;3343;42.896;23.912;2023-03-20T01:37:44;73891.38;;;-145.80;54.51
6615;BME280;3343;42.896;23.912;2023-03-20T01:40:32;73871.31;;;-145.80;53.23
6615;BME280;3343;42.896;23.912;2023-03-20T01:43:12;73907.41;;;-145.80;54.08
6615;BME280;3343;42.896;23.912;2023-03-20T01:45:48;73945.53;;;-145.80;54.99
6615;BME280;3343;42.896;23.912;2023-03-20T01:48:18;73989.66;;;-145.80;56.32
6615;BME280;3343;42.896;23.912;2023-03-20T01:50:45;73971.63;;;-145.80;55.08
6615;BME280;3343;42.896;23.912;2023-03-20T01:53:16;73977.63;;;-145.80;56.02
6615;BME280;3343;42.896;23.912;2023-03-20T01:55:45;74025.78;;;-145.80;57.22
6615;BME280;3343;42.896;23.912;2023-03-20T01:58:16;74001.72;;;-145.80;57.31
6615;BME280;3343;42.896;23.912;2023-03-20T02:00:46;74079.94;;;-145.80;59.25
6615;BME280;3343;42.896;23.912;2023-03-20T02:03:14;74057.88;;;-145.80;59.19
6615;BME280;3343;42.896;23.912;2023-03-20T02:05:43;74041.84;;;-145.80;58.98
6615;BME280;3343;42.896;23.912;2023-03-20T02:08:22;73985.66;;;-145.80;57.52
6615;BME280;3343;42.896;23.912;2023-03-20T02:10:51;73975.63;;;-145.80;56.51
6615;BME280;3343;42.896;23.912;2023-03-20T02:13:19;73971.63;;;-145.80;56.09
6615;BME280;3343;42.896;23.912;2023-03-20T02:16:10;73921.47;;;-145.80;54.46
6615;BME280;3343;42.896;23.912;2023-03-20T02:18:39;73955.56;;;-145.80;54.86
6615;BME280;3343;42.896;23.912;2023-03-20T02:21:43;74003.72;;;-145.80;55.58
6615;BME280;3343;42.896;23.912;2023-03-20T02:24:58;73997.69;;;-145.80;56.01
6615;BME280;3343;42.896;23.912;2023-03-20T02:27:33;73989.66;;;-145.80;56.38
6615;BME280;3343;42.896;23.912;2023-03-20T02:30:27;73997.69;;;-145.80;55.61
6615;BME280;3343;42.896;23.912;2023-03-20T02:36:14;73987.66;;;-145.80;55.18
6615;BME280;3343;42.896;23.912;2023-03-20T02:41:50;74051.88;;;-145.80;57.19
6615;BME280;3343;42.896;23.912;2023-03-20T02:44:22;74027.78;;;-145.80;57.22
6615;BME280;3343;42.896;23.912;2023-03-20T02:46:55;74043.84;;;-145.80;57.20
6615;BME280;3343;42.896;23.912;2023-03-20T02:49:37;74047.84;;;-145.80;56.92
6615;BME280;3343;42.896;23.912;2023-03-20T02:52:15;74067.91;;;-145.80;57.39
6615;BME280;3343;42.896;23.912;2023-03-20T02:54:52;74031.81;;;-145.80;56.82
6615;BME280;3343;42.896;23.912;2023-03-20T02:57:29;74017.75;;;-145.80;56.48
6615;BME280;3343;42.896;23.912;2023-03-20T03:00:04;74079.94;;;-145.80;58.04
6615;BME280;3343;42.896;23.912;2023-03-20T03:02:36;74031.81;;;-145.80;57.43
6615;BME280;3343;42.896;23.912;2023-03-20T03:05:10;74037.81;;;-145.80;57.53
6615;BME280;3343;42.896;23.912;2023-03-20T03:07:43;73987.66;;;-145.80;55.88
6615;BME280;3343;42.896;23.912;2023-03-20T03:10:16;73957.56;;;-145.80;55.04
6615;BME280;3343;42.896;23.912;2023-03-20T03:12:46;73971.63;;;-145.80;55.00
6615;BME280;3343;42.896;23.912;2023-03-20T03:15:16;73945.53;;;-145.80;54.56
6615;BME280;3343;42.896;23.912;2023-03-20T03:17:46;73965.59;;;-145.80;54.45
6615;BME280;3343;42.896;23.912;2023-03-20T03:20:21;73975.63;;;-145.80;54.35
6615;BME280;3343;42.896;23.912;2023-03-20T03:22:49;74098.00;;;-145.80;57.53
6615;BME280;3343;42.896;23.912;2023-03-20T03:25:18;74051.88;;;-145.80;57.02
6615;BME280;3343;42.896;23.912;2023-03-20T03:28:03;74031.81;;;-145.80;56.03
6615;BME280;3343;42.896;23.912;2023-03-20T03:30:35;74085.97;;;-145.80;57.46
6615;BME280;3343;42.896;23.912;2023-03-20T03:33:13;74091.97;;;-145.80;57.83
6615;BME280;3343;42.896;23.912;2023-03-20T03:35:42;74126.09;;;-145.80;59.50
6615;BME280;3343;42.896;23.912;2023-03-20T03:38:22;74043.84;;;-145.80;57.52
6615;BME280;3343;42.896;23.912;2023-03-20T03:41:03;74033.81;;;-145.80;56.81
6615;BME280;3343;42.896;23.912;2023-03-20T03:43:34;74039.81;;;-145.80;57.00
6615;BME280;3343;42.896;23.912;2023-03-20T03:46:09;74033.81;;;-145.80;56.98
6615;BME280;3343;42.896;23.912;2023-03-20T03:48:43;74031.81;;;-145.80;56.67
6615;BME280;3343;42.896;23.912;2023-03-20T03:51:13;74005.72;;;-145.80;56.53
6615;BME280;3343;42.896;23.912;2023-03-20T03:53:46;74073.94;;;-145.80;58.64
6615;BME280;3343;42.896;23.912;2023-03-20T03:56:20;74023.78;;;-145.80;57.00
6615;BME280;3343;42.896;23.912;2023-03-20T03:58:51;74003.72;;;-145.80;56.38
6615;BME280;3343;42.896;23.912;2023-03-20T04:01:22;74023.78;;;-145.80;55.50
6615;BME280;3343;42.896;23.912;2023-03-20T04:03:52;74045.84;;;-145.80;56.31
6615;BME280;3343;42.896;23.912;2023-03-20T04:06:21;74055.88;;;-145.80;56.64
6615;BME280;3343;42.896;23.912;2023-03-20T04:08:50;74027.78;;;-145.80;56.16
6615;BME280;3343;42.896;23.912;2023-03-20T04:11:20;74007.72;;;-145.80;55.64
6615;BME280;3343;42.896;23.912;2023-03-20T04:13:49;74053.88;;;-145.80;56.11
6615;BME280;3343;42.896;23.912;2023-03-20T04:16:20;74077.94;;;-145.80;57.06
6615;BME280;3343;42.896;23.912;2023-03-20T04:18:48;74154.19;;;-145.80;59.95
6615;BME280;3343;42.896;23.912;2023-03-20T04:21:15;74085.97;;;-145.80;58.50
6615;BME280;3343;42.896;23.912;2023-03-20T04:23:43;74069.91;;;-145.80;57.17
6615;BME280;3343;42.896;23.912;2023-03-20T04:26:10;74061.91;;;-145.80;56.84
6615;BME280;3343;42.896;23.912;2023-03-20T04:28:38;74001.72;;;-145.80;55.82
6615;BME280;3343;42.896;23.912;2023-03-20T04:31:06;74009.72;;;-145.80;55.74
6615;BME280;3343;42.896;23.912;2023-03-20T04:33:33;74079.94;;;-145.80;57.15
6615;BME280;3343;42.896;23.912;2023-03-20T04:36:00;74108.03;;;-145.80;58.52
6615;BME280;3343;42.896;23.912;2023-03-20T04:38:27;74120.06;;;-145.80;58.75
6615;BME280;3343;42.896;23.912;2023-03-20T04:40:54;74134.13;;;-145.80;59.38
6615;BME280;3343;42.896;23.912;2023-03-20T04:43:21;74071.91;;;-145.80;57.84
6615;BME280;3343;42.896;23.912;2023-03-20T04:45:49;74009.72;;;-145.80;57.00
6615;BME280;3343;42.896;23.912;2023-03-20T04:48:15;74007.72;;;-145.80;56.24
6615;BME280;3343;42.896;23.912;2023-03-20T04:50:42;73999.69;;;-145.80;56.08
6615;BME280;3343;42.896;23.912;2023-03-20T04:53:12;73977.63;;;-145.80;55.22
6615;BME280;3343;42.896;23.912;2023-03-20T04:55:39;73959.59;;;-145.80;55.02
6615;BME280;3343;42.896;23.912;2023-03-20T04:58:06;73965.59;;;-145.80;54.95
6615;BME280;3343;42.896;23.912;2023-03-20T05:00:33;73927.47;;;-145.80;55.05
6615;BME280;3343;42.896;23.912;2023-03-20T05:03:01;73877.34;;;-145.80;53.91
6615;BME280;3343;42.896;23.912;2023-03-20T05:05:28;73849.25;;;-145.80;53.17
6615;BME280;3343;42.896;23.912;2023-03-20T05:07:56;73841.22;;;-145.80;52.71
6615;BME280;3343;42.896;23.912;2023-03-20T05:10:23;73775.03;;;-145.80;51.25
6615;BME280;3343;42.896;23.912;2023-03-20T05:12:49;73704.81;;;-145.80;50.62
6615;BME280;3343;42.896;23.912;2023-03-20T05:15:16;73638.63;;;-145.80;49.49
6615;BME280;3343;42.896;23.912;2023-03-20T05:17:43;73610.53;;;-145.80;47.92
6615;BME280;3343;42.896;23.912;2023-03-20T05:20:12;73552.38;;;-145.80;47.27
6615;BME280;3343;42.896;23.912;2023-03-20T05:22:39;73564.41;;;-145.80;46.30
6615;BME280;3343;42.896;23.912;2023-03-20T05:25:06;73518.28;;;-145.80;47.12
6615;BME280;3343;42.896;23.912;2023-03-20T05:27:33;73518.28;;;-145.80;46.84
6615;BME280;3343;42.896;23.912;2023-03-20T05:30:00;73512.25;;;-145.80;45.68
6615;BME280;3343;42.896;23.912;2023-03-20T05:32:27;73490.19;;;-145.80;46.39
6615;BME280;3343;42.896;23.912;2023-03-20T05:34:53;73484.19;;;-145.80;45.70
6615;BME280;3343;42.896;23.912;2023-03-20T05:37:21;73496.22;;;-145.80;45.33
6615;BME280;3343;42.896;23.912;2023-03-20T05:39:48;73482.16;;;-145.80;45.10
6615;BME280;3343;42.896;23.912;2023-03-20T05:42:15;73476.16;;;-145.80;45.39
6615;BME280;3343;42.896;23.912;2023-03-20T05:44:42;73476.16;;;-145.80;45.51
6615;BME280;3343;42.896;23.912;2023-03-20T05:47:09;73456.09;;;-145.80;45.26
6615;BME280;3343;42.896;23.912;2023-03-20T05:49:35;73470.13;;;-145.80;44.05
6615;BME280;3343;42.896;23.912;2023-03-20T05:52:02;73476.16;;;-145.80;43.98
6615;BME280;3343;42.896;23.912;2023-03-20T05:54:30;73428.00;;;-145.80;44.44
6615;BME280;3343;42.896;23.912;2023-03-20T05:56:57;73385.91;;;-145.80;44.07
6615;BME280;3343;42.896;23.912;2023-03-20T05:59:24;73329.72;;;-145.80;42.93
6615;BME280;3343;42.896;23.912;2023-03-20T06:01:51;73351.78;;;-145.80;41.97
6615;BME280;3343;42.896;23.912;2023-03-20T06:04:18;73349.78;;;-145.80;41.15
6615;BME280;3343;42.896;23.912;2023-03-20T06:06:45;73305.66;;;-145.80;40.66
6615;BME280;3343;42.896;23.912;2023-03-20T06:09:11;73255.53;;;-145.80;41.43
6615;BME280;3343;42.896;23.912;2023-03-20T06:11:40;73213.41;;;-145.80;41.01
6615;BME280;3343;42.896;23.912;2023-03-20T06:14:06;73217.41;;;-145.80;39.40
6615;BME280;3343;42.896;23.912;2023-03-20T06:16:33;73197.38;;;-145.80;37.58
6615;BME280;3343;42.896;23.912;2023-03-20T06:19:00;73167.28;;;-145.80;38.21
6615;BME280;3343;42.896;23.912;2023-03-20T06:21:27;73127.16;;;-145.80;38.52
6615;BME280;3343;42.896;23.912;2023-03-20T06:23:54;73101.09;;;-145.80;38.45
6615;BME280;3343;42.896;23.912;2023-03-20T06:26:21;73101.09;;;-145.80;39.13
6615;BME280;3343;42.896;23.912;2023-03-20T06:28:49;73089.06;;;-145.80;39.01
6615;BME280;3343;42.896;23.912;2023-03-20T06:31:15;73143.22;;;-145.80;40.16
6615;BME280;3343;42.896;23.912;2023-03-20T06:33:42;73127.16;;;-145.80;40.21
6615;BME280;3343;42.896;23.912;2023-03-20T06:36:10;73105.09;;;-145.80;40.19
6615;BME280;3343;42.896;23.912;2023-03-20T06:38:37;73081.03;;;-145.80;39.85
6615;BME280;3343;42.896;23.912;2023-03-20T06:41:04;73016.84;;;-145.80;38.95
6615;BME280;3343;42.896;23.912;2023-03-20T06:43:31;72992.78;;;-145.80;38.74
6615;BME280;3343;42.896;23.912;2023-03-20T06:45:59;72934.63;;;-145.80;38.81
6615;BME280;3343;42.896;23.912;2023-03-20T06:48:26;72924.59;;;-145.80;36.63
6615;BME280;3343;42.896;23.912;2023-03-20T06:50:53;72902.53;;;-145.80;36.54
6615;BME280;3343;42.896;23.912;2023-03-20T06:53:20;72858.44;;;-145.80;36.11
6615;BME280;3343;42.896;23.912;2023-03-20T06:55:47;72810.28;;;-145.80;34.57
6615;BME280;3343;42.896;23.912;2023-03-20T06:58:15;72790.25;;;-145.80;34.61
6615;BME280;3343;42.896;23.912;2023-03-20T07:00:42;72756.16;;;-145.80;33.93
6615;BME280;3343;42.896;23.912;2023-03-20T07:03:10;72728.06;;;-145.80;33.66
6615;BME280;3343;42.896;23.912;2023-03-20T07:05:38;72740.09;;;-145.80;33.29
6615;BME280;3343;42.896;23.912;2023-03-20T07:08:05;72732.09;;;-145.80;33.15
6615;BME280;3343;42.896;23.912;2023-03-20T07:10:33;72752.13;;;-145.80;32.12
6615;BME280;3343;42.896;23.912;2023-03-20T07:13:00;72826.34;;;-145.80;31.37
6615;BME280;3343;42.896;23.912;2023-03-20T07:15:27;72848.41;;;-145.80;31.82
6615;BME280;3343;42.896;23.912;2023-03-20T07:17:55;72814.31;;;-145.80;31.44
6615;BME280;3343;42.896;23.912;2023-03-20T07:20:23;72746.13;;;-145.80;31.43
6615;BME280;3343;42.896;23.912;2023-03-20T07:22:50;72714.03;;;-145.80;31.94
6615;BME280;3343;42.896;23.912;2023-03-20T07:25:18;72645.84;;;-145.80;31.33
6615;BME280;3343;42.896;23.912;2023-03-20T07:27:45;72603.75;;;-145.80;30.49
6615;BME280;3343;42.896;23.912;2023-03-20T07:30:15;72561.63;;;-145.80;30.70
6615;BME280;3343;42.896;23.912;2023-03-20T07:32:42;72555.63;;;-145.80;30.91
6615;BME280;3343;42.896;23.912;2023-03-20T07:35:09;72537.56;;;-145.80;29.25
6615;BME280;3343;42.896;23.912;2023-03-20T07:37:38;72499.47;;;-145.80;30.50
6615;BME280;3343;42.896;23.912;2023-03-20T07:40:05;72517.53;;;-145.80;29.93
6615;BME280;3343;42.896;23.912;2023-03-20T07:42:32;72511.50;;;-145.80;30.13
6615;BME280;3343;42.896;23.912;2023-03-20T07:44:59;72499.47;;;-145.80;29.02
6615;BME280;3343;42.896;23.912;2023-03-20T07:47:26;72471.41;;;-145.80;28.98
6615;BME280;3343;42.896;23.912;2023-03-20T07:49:53;72477.41;;;-145.80;29.94
6615;BME280;3343;42.896;23.912;2023-03-20T07:52:20;72465.38;;;-145.80;28.98
6615;BME280;3343;42.896;23.912;2023-03-20T07:54:48;72487.44;;;-145.80;28.59
6615;BME280;3343;42.896;23.912;2023-03-20T07:57:15;72461.38;;;-145.80;28.57
6615;BME280;3343;42.896;23.912;2023-03-20T07:59:42;72433.31;;;-145.80;28.36
6615;BME280;3343;42.896;23.912;2023-03-20T08:02:13;72361.13;;;-145.80;27.63
6615;BME280;3343;42.896;23.912;2023-03-20T08:04:41;72381.16;;;-145.80;27.71
6615;BME280;3343;42.896;23.912;2023-03-20T08:07:07;72335.06;;;-145.80;27.31
6615;BME280;3343;42.896;23.912;2023-03-20T08:09:34;72315.00;;;-145.80;27.80
6615;BME280;3343;42.896;23.912;2023-03-20T08:12:03;72250.84;;;-145.80;26.95
6615;BME280;3343;42.896;23.912;2023-03-20T08:14:30;72236.81;;;-145.80;25.57
6615;BME280;3343;42.896;23.912;2023-03-20T08:16:57;72190.69;;;-145.80;25.47
6615;BME280;3343;42.896;23.912;2023-03-20T08:19:24;72196.69;;;-145.80;25.50
6615;BME280;3343;42.896;23.912;2023-03-20T08:21:53;72166.63;;;-145.80;25.67
6615;BME280;3343;42.896;23.912;2023-03-20T08:24:19;72140.56;;;-145.80;26.44
6615;BME280;3343;42.896;23.912;2023-03-20T08:26:47;72112.50;;;-145.80;25.66
6615;BME280;3343;42.896;23.912;2023-03-20T08:29:15;72132.53;;;-145.80;26.13
6615;BME280;3343;42.896;23.912;2023-03-20T08:31:44;72114.50;;;-145.80;26.79
6615;BME280;3343;42.896;23.912;2023-03-20T08:34:10;72068.38;;;-145.80;24.99
6615;BME280;3343;42.896;23.912;2023-03-20T08:36:37;72032.28;;;-145.80;25.83
6615;BME280;3343;42.896;23.912;2023-03-20T08:39:05;72040.31;;;-145.80;24.38
6615;BME280;3343;42.896;23.912;2023-03-20T08:41:32;71994.19;;;-145.80;24.77
6615;BME280;3343;42.896;23.912;2023-03-20T08:43:59;72028.28;;;-145.80;23.83
6615;BME280;3343;42.896;23.912;2023-03-20T08:46:28;72046.31;;;-145.80;24.36
6615;BME280;3343;42.896;23.912;2023-03-20T08:48:55;71994.19;;;-145.80;25.21
6615;BME280;3343;42.896;23.912;2023-03-20T08:51:23;72008.22;;;-145.80;24.22
6615;BME280;3343;42.896;23.912;2023-03-20T08:53:50;72060.34;;;-145.80;24.82
6615;BME280;3343;42.896;23.912;2023-03-20T08:56:17;72034.28;;;-145.80;24.46
6615;BME280;3343;42.896;23.912;2023-03-20T08:58:44;72010.25;;;-145.80;24.44
6615;BME280;3343;42.896;23.912;2023-03-20T09:01:11;71970.13;;;-145.80;24.19
6615;BME280;3343;42.896;23.912;2023-03-20T09:03:41;71930.03;;;-145.80;25.06
6615;BME280;3343;42.896;23.912;2023-03-20T09:06:09;71938.06;;;-145.80;25.31
6615;BME280;3343;42.896;23.912;2023-03-20T09:08:36;71914.00;;;-145.80;24.90
6615;BME280;3343;42.896;23.912;2023-03-20T09:11:04;71893.94;;;-145.80;24.15
6615;BME280;3343;42.896;23.912;2023-03-20T09:13:31;71958.09;;;-145.80;24.97
6615;BME280;3343;42.896;23.912;2023-03-20T09:15:58;71960.13;;;-145.80;24.29
6615;BME280;3343;42.896;23.912;2023-03-20T09:18:25;71944.06;;;-145.80;24.54
6615;BME280;3343;42.896;23.912;2023-03-20T09:20:53;71922.03;;;-145.80;24.57
6615;BME280;3343;42.896;23.912;2023-03-20T09:23:21;71910.00;;;-145.80;24.78
6615;BME280;3343;42.896;23.912;2023-03-20T09:25:48;71891.94;;;-145.80;24.35
6615;BME280;3343;42.896;23.912;2023-03-20T09:28:15;71871.91;;;-145.80;24.14
6615;BME280;3343;42.896;23.912;2023-03-20T09:30:42;71859.88;;;-145.80;24.13
6615;BME280;3343;42.896;23.912;2023-03-20T09:33:10;71912.00;;;-145.80;25.14
6615;BME280;3343;42.896;23.912;2023-03-20T09:35:39;71895.97;;;-145.80;25.30
6615;BME280;3343;42.896;23.912;2023-03-20T09:38:07;71847.84;;;-145.80;24.90
6615;BME280;3343;42.896;23.912;2023-03-20T09:40:47;71861.88;;;-145.80;23.68
6615;BME280;3343;42.896;23.912;2023-03-20T09:43:21;71813.75;;;-145.80;24.10
6615;BME280;3343;42.896;23.912;2023-03-20T09:46:00;71789.69;;;-145.80;23.83
6615;BME280;3343;42.896;23.912;2023-03-20T09:48:39;71731.56;;;-145.80;23.82
6615;BME280;3343;42.896;23.912;2023-03-20T09:51:16;71733.56;;;-145.80;22.12
6615;BME280;3343;42.896;23.912;2023-03-20T09:53:51;71769.66;;;-145.80;22.12
6615;BME280;3343;42.896;23.912;2023-03-20T09:56:22;71765.66;;;-145.80;21.84
6615;BME280;3343;42.896;23.912;2023-03-20T09:58:53;71715.53;;;-145.80;22.15
6615;BME280;3343;42.896;23.912;2023-03-20T10:01:23;71681.44;;;-145.80;22.28
6615;BME280;3343;42.896;23.912;2023-03-20T10:03:55;71653.38;;;-145.80;21.62
6615;BME280;3343;42.896;23.912;2023-03-20T10:06:22;71747.59;;;-145.80;21.65
6615;BME280;3343;42.896;23.912;2023-03-20T10:08:51;71677.44;;;-145.80;21.61
6615;BME280;3343;42.896;23.912;2023-03-20T10:11:44;71665.41;;;-145.80;20.46
6615;BME280;3343;42.896;23.912;2023-03-20T10:14:23;71657.38;;;-145.80;21.49
6615;BME280;3343;42.896;23.912;2023-03-20T10:17:03;71669.41;;;-145.80;21.34
6615;BME280;3343;42.896;23.912;2023-03-20T10:19:41;71775.66;;;-145.80;20.53
6615;BME280;3343;42.896;23.912;2023-03-20T10:22:16;71817.78;;;-145.80;21.15
6615;BME280;3343;42.896;23.912;2023-03-20T10:24:48;71789.69;;;-145.80;20.79
6615;BME280;3343;42.896;23.912;2023-03-20T10:27:22;71769.66;;;-145.80;21.27
6615;BME280;3343;42.896;23.912;2023-03-20T10:29:55;71839.81;;;-145.80;21.08
6615;BME280;3343;42.896;23.912;2023-03-20T10:32:32;71825.78;;;-145.80;20.65
6615;BME280;3343;42.896;23.912;2023-03-20T10:35:15;71777.66;;;-145.80;20.82
6615;BME280;3343;42.896;23.912;2023-03-20T10:37:56;71749.59;;;-145.80;20.91
6615;BME280;3343;42.896;23.912;2023-03-20T10:40:31;71753.63;;;-145.80;21.76
6615;BME280;3343;42.896;23.912;2023-03-20T10:43:02;71795.72;;;-145.80;20.37
6615;BME280;3343;42.896;23.912;2023-03-20T10:45:37;71749.59;;;-145.80;20.17
6615;BME280;3343;42.896;23.912;2023-03-20T10:48:10;71739.59;;;-145.80;20.22
6615;BME280;3343;42.896;23.912;2023-03-20T10:50:43;71649.38;;;-145.80;21.04
6615;BME280;3343;42.896;23.912;2023-03-20T10:53:21;71629.31;;;-145.80;20.15
6615;BME280;3343;42.896;23.912;2023-03-20T10:55:53;71625.31;;;-145.80;19.93
6615;BME280;3343;42.896;23.912;2023-03-20T10:58:25;71593.25;;;-145.80;20.33
6615;BME280;3343;42.896;23.912;2023-03-20T11:00:54;71581.22;;;-145.80;19.89
6615;BME280;3343;42.896;23.912;2023-03-20T11:03:23;71623.31;;;-145.80;19.73
6615;BME280;3343;42.896;23.912;2023-03-20T11:05:53;71597.25;;;-145.80;19.58
6615;BME280;3343;42.896;23.912;2023-03-20T11:08:24;71647.38;;;-145.80;19.36
6615;BME280;3343;42.896;23.912;2023-03-20T11:11:00;71777.66;;;-145.80;19.57
6615;BME280;3343;42.896;23.912;2023-03-20T11:13:31;71743.59;;;-145.80;20.24
6615;BME280;3343;42.896;23.912;2023-03-20T11:16:09;71713.53;;;-145.80;20.35
6615;BME280;3343;42.896;23.912;2023-03-20T11:18:36;71699.47;;;-145.80;20.12
6615;BME280;3343;42.896;23.912;2023-03-20T11:21:09;71661.41;;;-145.80;20.47
6615;BME280;3343;42.896;23.912;2023-03-20T11:23:39;71615.28;;;-145.80;20.88
6615;BME280;3343;42.896;23.912;2023-03-20T11:26:12;71581.22;;;-145.80;19.75
6615;BME280;3343;42.896;23.912;2023-03-20T11:28:46;71591.22;;;-145.80;19.88
6615;BME280;3343;42.896;23.912;2023-03-20T11:31:19;71545.13;;;-145.80;19.96
6615;BME280;3343;42.896;23.912;2023-03-20T11:33:52;71543.13;;;-145.80;21.38
6615;BME280;3343;42.896;23.912;2023-03-20T11:36:28;71519.06;;;-145.80;20.50
6615;BME280;3343;42.896;23.912;2023-03-20T11:39:00;71595.25;;;-145.80;19.63
6615;BME280;3343;42.896;23.912;2023-03-20T11:41:32;71547.13;;;-145.80;20.73
6615;BME280;3343;42.896;23.912;2023-03-20T11:44:00;71527.09;;;-145.80;20.26
6615;BME280;3343;42.896;23.912;2023-03-20T11:46:27;71577.19;;;-145.80;19.31
6615;BME280;3343;42.896;23.912;2023-03-20T11:49:06;71509.03;;;-145.80;19.84
6615;BME280;3343;42.896;23.912;2023-03-20T11:51:35;71450.91;;;-145.80;19.45
6615;BME280;3343;42.896;23.912;2023-03-20T11:54:04;71509.03;;;-145.80;20.05
6615;BME280;3343;42.896;23.912;2023-03-20T11:56:34;71563.16;;;-145.80;19.90
6615;BME280;3343;42.896;23.912;2023-03-20T11:59:05;71555.16;;;-145.80;20.35
6615;BME280;3343;42.896;23.912;2023-03-20T12:01:40;71521.06;;;-145.80;21.13
6615;BME280;3343;42.896;23.912;2023-03-20T12:04:12;71503.03;;;-145.80;20.00
6615;BME280;3343;42.896;23.912;2023-03-20T12:06:44;71456.91;;;-145.80;20.14
6615;BME280;3343;42.896;23.912;2023-03-20T12:09:30;71485.00;;;-145.80;19.44
6615;BME280;3343;42.896;23.912;2023-03-20T12:12:04;71545.13;;;-145.80;20.00
6615;BME280;3343;42.896;23.912;2023-03-20T12:14:39;71497.00;;;-145.80;19.96
6615;BME280;3343;42.896;23.912;2023-03-20T12:17:31;71583.22;;;-145.80;19.98
6615;BME280;3343;42.896;23.912;2023-03-20T12:20:04;71665.41;;;-145.80;20.61
6615;BME280;3343;42.896;23.912;2023-03-20T12:22:35;71663.41;;;-145.80;20.62
6615;BME280;3343;42.896;23.912;2023-03-20T12:25:10;71617.28;;;-145.80;20.03
6615;BME280;3343;42.896;23.912;2023-03-20T12:27:46;71597.25;;;-145.80;19.87
6615;BME280;3343;42.896;23.912;2023-03-20T12:30:19;71529.09;;;-145.80;19.89
6615;BME280;3343;42.896;23.912;2023-03-20T12:32:53;71485.00;;;-145.80;19.98
6615;BME280;3343;42.896;23.912;2023-03-20T12:35:27;71442.88;;;-145.80;20.07
6615;BME280;3343;42.896;23.912;2023-03-20T12:37:54;71430.88;;;-145.80;20.16
6615;BME280;3343;42.896;23.912;2023-03-20T12:40:25;71406.81;;;-145.80;20.41
6615;BME280;3343;42.896;23.912;2023-03-20T12:43:03;71485.00;;;-145.80;19.53
6615;BME280;3343;42.896;23.912;2023-03-20T12:45:32;71539.13;;;-145.80;20.34
6615;BME280;3343;42.896;23.912;2023-03-20T12:48:18;71547.13;;;-145.80;20.31
6615;BME280;3343;42.896;23.912;2023-03-20T12:50:52;71501.03;;;-145.80;20.50
6615;BME280;3343;42.896;23.912;2023-03-20T12:53:38;71485.00;;;-145.80;19.86
6615;BME280;3343;42.896;23.912;2023-03-20T12:56:23;71462.94;;;-145.80;20.19
6615;BME280;3343;42.896;23.912;2023-03-20T12:58:59;71416.84;;;-145.80;19.96
6615;BME280;3343;42.896;23.912;2023-03-20T13:01:30;71487.00;;;-145.80;20.15
6615;BME280;3343;42.896;23.912;2023-03-20T13:04:21;71474.97;;;-145.80;20.77
6615;BME280;3343;42.896;23.912;2023-03-20T13:06:59;71501.03;;;-145.80;20.84
6615;BME280;3343;42.896;23.912;2023-03-20T13:09:47;71555.16;;;-145.80;21.72
6615;BME280;3343;42.896;23.912;2023-03-20T13:12:28;71609.28;;;-145.80;22.03
6615;BME280;3343;42.896;23.912;2023-03-20T13:15:06;71621.31;;;-145.80;21.71